Wetterdaten: Mai 2008
Datum Temp Feuchte Luftdruck Regen Wind Richtung Sonnenschein UV Solar Windben
01.05.2008 9,4 C 72 % 1013,4 hPa 0,4 l/m 4,2 km/h SW 7,33 h 2,3 UV-I 355 W/m 10,5 km/h
02.05.2008 8,8 C 85 % 1023,1 hPa 5,6 l/m 4,3 km/h W-SW 5,67 h 2,5 UV-I 317 W/m 6,8 km/h
03.05.2008 10,1 C 67 % 1027,6 hPa 0,2 l/m 0,7 km/h O 11,00 h 2,9 UV-I 409 W/m 2,4 km/h
04.05.2008 12,3 C 58 % 1025,9 hPa 0,0 l/m 1,9 km/h O-NO 11,33 h 3,4 UV-I 478 W/m 7,2 km/h
05.05.2008 12,4 C 70 % 1027,4 hPa 0,0 l/m 0,9 km/h O 10,33 h 3,1 UV-I 449 W/m 3,6 km/h
06.05.2008 14,9 C 62 % 1025,6 hPa 0,0 l/m 2,1 km/h O-NO 10,42 h 3,5 UV-I 413 W/m 6,8 km/h
07.05.2008 15,5 C 58 % 1021,8 hPa 0,0 l/m 1,6 km/h O 11,83 h 3,9 UV-I 487 W/m 4,4 km/h
08.05.2008 15,3 C 60 % 1019,1 hPa 0,0 l/m 0,0 km/h N 12,48 h 3,6 UV-I 489 W/m 0,0 km/h
09.05.2008 17,0 C 52 % 1017,7 hPa 0,0 l/m 1,7 km/h O 12,50 h 3,6 UV-I 493 W/m 6,8 km/h
10.05.2008 16,8 C 48 % 1019,8 hPa 0,0 l/m 2,6 km/h O 12,67 h 3,5 UV-I 501 W/m 7,3 km/h
11.05.2008 15,8 C 54 % 1020,0 hPa 0,0 l/m 2,2 km/h O 12,67 h 3,5 UV-I 500 W/m 5,2 km/h
12.05.2008 16,9 C 56 % 1018,3 hPa 0,0 l/m 0,9 km/h O 11,92 h 3,3 UV-I 501 W/m 2,8 km/h
13.05.2008 16,6 C 61 % 1016,3 hPa 0,0 l/m 0,6 km/h O 9,08 h 2,7 UV-I 391 W/m 0,8 km/h
14.05.2008 16,3 C 61 % 1013,3 hPa 0,0 l/m 1,2 km/h O 12,83 h 3,3 UV-I 497 W/m 2,8 km/h
15.05.2008 15,1 C 80 % 1008,5 hPa 1,1 l/m 0,7 km/h O 4,08 h 2,5 UV-I 253 W/m 2,4 km/h
16.05.2008 13,7 C 89 % 1006,5 hPa 1,0 l/m 0,4 km/h NW 3,25 h 1,5 UV-I 195 W/m 2,8 km/h
17.05.2008 11,7 C 93 % 1005,5 hPa 2,3 l/m 0,7 km/h O 0,58 h 1,6 UV-I 151 W/m 4,0 km/h
18.05.2008 7,7 C 85 % 1011,0 hPa 0,0 l/m 0,0 km/h N-NW 2,50 h 1,5 UV-I 189 W/m 0,8 km/h
19.05.2008 9,5 C 69 % 1014,8 hPa 0,0 l/m 0,1 km/h N-NW 3,58 h 2,0 UV-I 270 W/m 1,6 km/h
20.05.2008 10,0 C 62 % 1017,7 hPa 0,0 l/m 0,2 km/h NW 7,67 h 2,9 UV-I 393 W/m 1,6 km/h
21.05.2008 11,5 C 62 % 1017,6 hPa 0,0 l/m 0,1 km/h O 7,58 h 2,5 UV-I 346 W/m 1,2 km/h
22.05.2008 12,9 C 58 % 1016,8 hPa 0,0 l/m 0,3 km/h O 6,58 h 2,8 UV-I 371 W/m 1,2 km/h
23.05.2008 13,3 C 68 % 1014,9 hPa 0,0 l/m 0,6 km/h O 3,50 h 2,1 UV-I 259 W/m 1,6 km/h
24.05.2008 15,5 C 61 % 1013,0 hPa 0,0 l/m 0,6 km/h O 9,42 h 3,1 UV-I 411 W/m 2,8 km/h
25.05.2008 15,1 C 78 % 1014,1 hPa 0,1 l/m 0,3 km/h O 2,92 h 1,9 UV-I 209 W/m 0,8 km/h
26.05.2008 16,0 C 85 % 1011,8 hPa 0,0 l/m 0,5 km/h O-NO 0,42 h 1,8 UV-I 162 W/m 2,0 km/h
27.05.2008 15,6 C 81 % 1013,5 hPa 0,0 l/m 1,2 km/h O 3,33 h 2,1 UV-I 212 W/m 5,2 km/h
28.05.2008 20,5 C 75 % 1012,3 hPa 0,0 l/m 1,3 km/h O 9,75 h 3,0 UV-I 350 W/m 4,0 km/h
29.05.2008 21,4 C 72 % 1009,8 hPa 0,0 l/m 2,3 km/h O 8,50 h 2,6 UV-I 352 W/m 8,0 km/h
30.05.2008 20,2 C 80 % 1009,2 hPa 3,2 l/m 1,6 km/h NW 8,83 h 2,8 UV-I 367 W/m 7,7 km/h
31.05.2008 17,0 C 92 % 1013,3 hPa 0,0 l/m 0,3 km/h NW 0,33 h 1,7 UV-I 132 W/m 2,0 km/h
Min-Datum 03.05.08 07.05.08 17.05.08 8 Tage 01.05.08 - - - - 01.05.08
Min-Zeit 05:45 14:30 14:05 - 05:30 - - - - 05:30
Minimum 1,9 C 31 % 1002,7 hPa - 0,0 km/h - - - - 0,0 km/h
Max-Datum 29.05.08 31.05.08 03.05.08 02.05.08 02.05.08 - 14.05.08 06.05.08 21.05.08 01.05.08
Max-Zeit 15:55 07:05 10:05 17:30 14:30 - 19:35 13:35 14:15 18:20
Maximum 26,1 C 98 % 1028,5 hPa 5,6 l/m 17,1 km/h
W-SW
- 12,75 h 7,7 UV-I 1227 W/m 38,6 km/h
W-SW
Durchschnitt 14,3 C 69 % 1016,1 hPa #14,0 l/m 1,2 km/h O #234:54 h 2,7 UV-I 352 W/m 3,8 km/h

Durchschnitt Minimum Temp.8,0 C
Durchschnitt Maximum Temp.20,1 C